sensor_id;sensor_type;location;lat;lon;timestamp;pressure;altitude;pressure_sealevel;temperature;humidity
13478;BME280;12598;62.382;17.344;2023-02-12T00:00:55;102000.91;;;16.65;18.93
13478;BME280;12598;62.382;17.344;2023-02-12T00:01:57;101994.38;;;16.56;19.16
13478;BME280;12598;62.382;17.344;2023-02-12T00:02:59;101993.97;;;16.62;19.03
13478;BME280;12598;62.382;17.344;2023-02-12T00:04:01;101992.25;;;16.61;19.13
13478;BME280;12598;62.382;17.344;2023-02-12T00:05:03;101974.19;;;16.52;18.94
13478;BME280;12598;62.382;17.344;2023-02-12T00:06:06;101976.47;;;16.58;18.98
13478;BME280;12598;62.382;17.344;2023-02-12T00:07:08;101965.78;;;16.58;19.05
13478;BME280;12598;62.382;17.344;2023-02-12T00:08:11;101975.59;;;16.58;19.05
13478;BME280;12598;62.382;17.344;2023-02-12T00:09:12;101978.34;;;16.56;19.38
13478;BME280;12598;62.382;17.344;2023-02-12T00:10:14;101982.00;;;16.55;19.01
13478;BME280;12598;62.382;17.344;2023-02-12T00:11:23;101977.09;;;16.49;19.18
13478;BME280;12598;62.382;17.344;2023-02-12T00:12:25;101982.88;;;16.56;19.28
13478;BME280;12598;62.382;17.344;2023-02-12T00:13:30;101959.78;;;16.42;18.86
13478;BME280;12598;62.382;17.344;2023-02-12T00:14:32;101972.94;;;16.45;19.02
13478;BME280;12598;62.382;17.344;2023-02-12T00:15:38;101960.53;;;16.44;19.12
13478;BME280;12598;62.382;17.344;2023-02-12T00:16:40;101966.84;;;16.43;18.96
13478;BME280;12598;62.382;17.344;2023-02-12T00:17:41;101984.13;;;16.50;18.97
13478;BME280;12598;62.382;17.344;2023-02-12T00:18:44;101986.94;;;16.49;19.06
13478;BME280;12598;62.382;17.344;2023-02-12T00:19:46;101982.88;;;16.43;19.13
13478;BME280;12598;62.382;17.344;2023-02-12T00:20:48;101984.34;;;16.47;19.21
13478;BME280;12598;62.382;17.344;2023-02-12T00:21:50;101985.31;;;16.46;19.51
13478;BME280;12598;62.382;17.344;2023-02-12T00:22:52;101991.63;;;16.45;19.14
13478;BME280;12598;62.382;17.344;2023-02-12T00:23:54;101986.28;;;16.45;19.16
13478;BME280;12598;62.382;17.344;2023-02-12T00:24:56;101990.88;;;16.43;19.48
13478;BME280;12598;62.382;17.344;2023-02-12T00:25:58;101989.06;;;16.44;19.35
13478;BME280;12598;62.382;17.344;2023-02-12T00:27:00;101987.38;;;16.43;19.26
13478;BME280;12598;62.382;17.344;2023-02-12T00:28:02;101985.66;;;16.42;19.49
13478;BME280;12598;62.382;17.344;2023-02-12T00:29:04;101983.94;;;16.41;19.29
13478;BME280;12598;62.382;17.344;2023-02-12T00:30:06;101977.75;;;16.40;19.63
13478;BME280;12598;62.382;17.344;2023-02-12T00:31:20;101971.44;;;16.41;19.58
13478;BME280;12598;62.382;17.344;2023-02-12T00:32:23;101971.34;;;16.43;19.56
13478;BME280;12598;62.382;17.344;2023-02-12T00:33:24;101975.94;;;16.41;19.47
13478;BME280;12598;62.382;17.344;2023-02-12T00:34:26;101972.41;;;16.40;19.49
13478;BME280;12598;62.382;17.344;2023-02-12T00:35:28;101970.16;;;16.34;19.44
13478;BME280;12598;62.382;17.344;2023-02-12T00:36:30;101965.09;;;16.30;19.34
13478;BME280;12598;62.382;17.344;2023-02-12T00:37:33;101977.97;;;16.37;19.16
13478;BME280;12598;62.382;17.344;2023-02-12T00:38:34;101973.59;;;16.36;19.31
13478;BME280;12598;62.382;17.344;2023-02-12T00:39:37;101974.53;;;16.35;19.55
13478;BME280;12598;62.382;17.344;2023-02-12T00:40:38;101981.59;;;16.36;19.46
13478;BME280;12598;62.382;17.344;2023-02-12T00:41:40;101982.66;;;16.34;19.22
13478;BME280;12598;62.382;17.344;2023-02-12T00:42:42;101984.53;;;16.32;19.52
13478;BME280;12598;62.382;17.344;2023-02-12T00:43:44;101990.75;;;16.32;19.44
13478;BME280;12598;62.382;17.344;2023-02-12T00:44:47;101991.56;;;16.33;19.43
13478;BME280;12598;62.382;17.344;2023-02-12T00:45:49;101985.41;;;16.32;19.58
13478;BME280;12598;62.382;17.344;2023-02-12T00:46:51;101989.03;;;16.31;19.61
13478;BME280;12598;62.382;17.344;2023-02-12T00:47:52;101996.09;;;16.32;19.70
13478;BME280;12598;62.382;17.344;2023-02-12T00:48:54;101984.75;;;16.29;19.38
13478;BME280;12598;62.382;17.344;2023-02-12T00:49:56;101995.34;;;16.30;19.47
13478;BME280;12598;62.382;17.344;2023-02-12T00:50:58;101988.72;;;16.24;19.46
13478;BME280;12598;62.382;17.344;2023-02-12T00:52:03;101992.75;;;16.29;19.57
13478;BME280;12598;62.382;17.344;2023-02-12T00:53:06;101979.53;;;16.27;19.63
13478;BME280;12598;62.382;17.344;2023-02-12T00:54:07;101985.63;;;16.29;19.25
13478;BME280;12598;62.382;17.344;2023-02-12T00:55:09;101971.53;;;16.27;19.54
13478;BME280;12598;62.382;17.344;2023-02-12T00:56:11;101971.53;;;16.27;19.74
13478;BME280;12598;62.382;17.344;2023-02-12T00:57:13;101973.44;;;16.26;19.38
13478;BME280;12598;62.382;17.344;2023-02-12T00:58:16;101974.19;;;16.27;19.52
13478;BME280;12598;62.382;17.344;2023-02-12T00:59:19;101975.16;;;16.27;19.35
13478;BME280;12598;62.382;17.344;2023-02-12T01:00:21;101959.97;;;16.15;19.48
13478;BME280;12598;62.382;17.344;2023-02-12T01:01:23;101985.84;;;16.27;19.85
13478;BME280;12598;62.382;17.344;2023-02-12T01:02:25;101977.09;;;16.25;19.73
13478;BME280;12598;62.382;17.344;2023-02-12T01:03:27;101971.09;;;16.21;19.60
13478;BME280;12598;62.382;17.344;2023-02-12T01:04:29;101977.28;;;16.22;19.33
13478;BME280;12598;62.382;17.344;2023-02-12T01:05:31;101973.66;;;16.23;19.29
13478;BME280;12598;62.382;17.344;2023-02-12T01:06:33;101979.84;;;16.23;19.77
13478;BME280;12598;62.382;17.344;2023-02-12T01:07:35;101978.13;;;16.22;19.29
13478;BME280;12598;62.382;17.344;2023-02-12T01:08:39;101982.63;;;16.22;19.41
13478;BME280;12598;62.382;17.344;2023-02-12T01:09:40;101982.63;;;16.22;19.68
13478;BME280;12598;62.382;17.344;2023-02-12T01:10:43;101973.75;;;16.21;19.76
13478;BME280;12598;62.382;17.344;2023-02-12T01:11:45;101972.91;;;16.21;19.75
13478;BME280;12598;62.382;17.344;2023-02-12T01:12:47;101970.25;;;16.21;19.34
13478;BME280;12598;62.382;17.344;2023-02-12T01:13:49;101961.50;;;16.19;19.88
13478;BME280;12598;62.382;17.344;2023-02-12T01:14:51;101967.69;;;16.19;19.38
13478;BME280;12598;62.382;17.344;2023-02-12T01:16:08;101967.69;;;16.19;19.53
13478;BME280;12598;62.382;17.344;2023-02-12T01:17:11;101970.13;;;16.22;19.58
13478;BME280;12598;62.382;17.344;2023-02-12T01:18:13;101968.53;;;16.20;19.77
13478;BME280;12598;62.382;17.344;2023-02-12T01:19:17;101965.97;;;16.18;19.52
13478;BME280;12598;62.382;17.344;2023-02-12T01:20:21;101974.09;;;16.17;19.74
13478;BME280;12598;62.382;17.344;2023-02-12T01:21:26;101968.75;;;16.17;19.81
13478;BME280;12598;62.382;17.344;2023-02-12T01:22:29;101962.56;;;16.16;19.70
13478;BME280;12598;62.382;17.344;2023-02-12T01:23:31;101966.19;;;16.15;19.67
13478;BME280;12598;62.382;17.344;2023-02-12T01:24:33;101966.19;;;16.15;19.90
13478;BME280;12598;62.382;17.344;2023-02-12T01:25:37;101963.59;;;16.14;19.92
13478;BME280;12598;62.382;17.344;2023-02-12T01:26:39;101963.59;;;16.14;19.82
13478;BME280;12598;62.382;17.344;2023-02-12T01:27:41;101959.97;;;16.15;19.75
13478;BME280;12598;62.382;17.344;2023-02-12T01:28:48;101963.59;;;16.14;19.94
13478;BME280;12598;62.382;17.344;2023-02-12T01:29:51;101959.97;;;16.15;19.59
13478;BME280;12598;62.382;17.344;2023-02-12T01:30:54;101965.44;;;16.13;19.46
13478;BME280;12598;62.382;17.344;2023-02-12T01:31:56;101955.72;;;16.12;19.41
13478;BME280;12598;62.382;17.344;2023-02-12T01:32:58;101958.38;;;16.12;19.45
13478;BME280;12598;62.382;17.344;2023-02-12T01:34:01;101958.47;;;16.11;19.75
13478;BME280;12598;62.382;17.344;2023-02-12T01:35:03;101941.84;;;16.07;19.68
13478;BME280;12598;62.382;17.344;2023-02-12T01:36:06;101947.81;;;16.11;19.95
13478;BME280;12598;62.382;17.344;2023-02-12T01:37:09;101948.78;;;16.10;19.66
13478;BME280;12598;62.382;17.344;2023-02-12T01:38:11;101948.03;;;16.08;19.58
13478;BME280;12598;62.382;17.344;2023-02-12T01:39:12;101943.88;;;16.04;19.69
13478;BME280;12598;62.382;17.344;2023-02-12T01:40:16;101934.16;;;16.03;19.71
13478;BME280;12598;62.382;17.344;2023-02-12T01:41:24;101947.19;;;16.07;19.44
13478;BME280;12598;62.382;17.344;2023-02-12T01:42:26;101940.88;;;16.08;19.93
13478;BME280;12598;62.382;17.344;2023-02-12T01:43:28;101924.66;;;15.99;19.94
13478;BME280;12598;62.382;17.344;2023-02-12T01:44:31;101929.69;;;16.03;19.56
13478;BME280;12598;62.382;17.344;2023-02-12T01:46:38;101932.22;;;16.05;19.88
13478;BME280;12598;62.382;17.344;2023-02-12T01:47:42;101925.19;;;16.04;19.86
13478;BME280;12598;62.382;17.344;2023-02-12T01:48:45;101922.44;;;16.05;19.65
13478;BME280;12598;62.382;17.344;2023-02-12T01:49:48;101921.56;;;16.05;19.77
13478;BME280;12598;62.382;17.344;2023-02-12T01:50:50;101918.16;;;16.03;20.07
13478;BME280;12598;62.382;17.344;2023-02-12T01:52:05;101901.31;;;16.02;19.90
13478;BME280;12598;62.382;17.344;2023-02-12T01:53:08;101908.97;;;16.07;19.92
13478;BME280;12598;62.382;17.344;2023-02-12T01:54:11;101904.72;;;16.04;20.07
13478;BME280;12598;62.382;17.344;2023-02-12T01:55:15;101903.00;;;16.03;19.83
13478;BME280;12598;62.382;17.344;2023-02-12T01:56:17;101902.13;;;16.03;20.07
13478;BME280;12598;62.382;17.344;2023-02-12T01:57:19;101905.78;;;16.02;19.96
13478;BME280;12598;62.382;17.344;2023-02-12T01:58:23;101904.06;;;16.01;20.10
13478;BME280;12598;62.382;17.344;2023-02-12T01:59:25;101887.75;;;15.93;20.07
13478;BME280;12598;62.382;17.344;2023-02-12T02:00:28;101899.69;;;16.00;20.14
13478;BME280;12598;62.382;17.344;2023-02-12T02:01:32;101898.19;;;15.96;19.95
13478;BME280;12598;62.382;17.344;2023-02-12T02:02:36;101907.69;;;16.00;19.83
13478;BME280;12598;62.382;17.344;2023-02-12T02:03:41;101898.72;;;16.01;19.78
13478;BME280;12598;62.382;17.344;2023-02-12T02:04:51;101901.53;;;15.99;20.16
13478;BME280;12598;62.382;17.344;2023-02-12T02:05:59;101899.81;;;15.98;20.06
13478;BME280;12598;62.382;17.344;2023-02-12T02:07:04;101866.53;;;15.79;20.01
13478;BME280;12598;62.382;17.344;2023-02-12T02:08:08;101897.88;;;16.00;20.01
13478;BME280;12598;62.382;17.344;2023-02-12T02:09:10;101905.91;;;16.00;20.11
13478;BME280;12598;62.382;17.344;2023-02-12T02:10:12;101889.53;;;15.92;19.82
13478;BME280;12598;62.382;17.344;2023-02-12T02:11:14;101901.09;;;15.93;19.83
13478;BME280;12598;62.382;17.344;2023-02-12T02:12:35;101911.00;;;16.03;19.87
13478;BME280;12598;62.382;17.344;2023-02-12T02:13:57;101889.34;;;15.95;19.72
13478;BME280;12598;62.382;17.344;2023-02-12T02:15:17;101901.91;;;16.06;20.04
13478;BME280;12598;62.382;17.344;2023-02-12T02:16:25;101895.09;;;16.02;20.19
13478;BME280;12598;62.382;17.344;2023-02-12T02:19:01;101883.38;;;16.04;19.87
13478;BME280;12598;62.382;17.344;2023-02-12T02:20:32;101891.25;;;16.06;19.90
13478;BME280;12598;62.382;17.344;2023-02-12T02:23:29;101889.31;;;16.08;20.13
13478;BME280;12598;62.382;17.344;2023-02-12T02:26:18;101877.81;;;16.07;19.84
13478;BME280;12598;62.382;17.344;2023-02-12T02:32:29;101870.56;;;15.97;20.14
13478;BME280;12598;62.382;17.344;2023-02-12T02:34:58;101868.84;;;15.96;20.19
13478;BME280;12598;62.382;17.344;2023-02-12T02:37:32;101874.84;;;15.99;19.77
13478;BME280;12598;62.382;17.344;2023-02-12T02:39:05;101870.56;;;15.97;19.84
13478;BME280;12598;62.382;17.344;2023-02-12T02:40:14;101864.16;;;15.99;20.02
13478;BME280;12598;62.382;17.344;2023-02-12T02:42:32;101866.09;;;15.85;20.19
13478;BME280;12598;62.382;17.344;2023-02-12T02:43:43;101874.28;;;15.94;20.05
13478;BME280;12598;62.382;17.344;2023-02-12T02:44:52;101862.78;;;15.94;20.17
13478;BME280;12598;62.382;17.344;2023-02-12T02:45:58;101869.06;;;15.93;20.28
13478;BME280;12598;62.382;17.344;2023-02-12T02:47:04;101859.88;;;15.84;20.18
13478;BME280;12598;62.382;17.344;2023-02-12T02:48:16;101871.81;;;15.91;20.43
13478;BME280;12598;62.382;17.344;2023-02-12T02:49:47;101859.88;;;15.97;19.86
13478;BME280;12598;62.382;17.344;2023-02-12T02:50:56;101859.06;;;15.96;20.19
13478;BME280;12598;62.382;17.344;2023-02-12T02:52:03;101860.09;;;15.94;20.15
13478;BME280;12598;62.382;17.344;2023-02-12T02:53:11;101852.19;;;15.92;20.40
13478;BME280;12598;62.382;17.344;2023-02-12T02:54:18;101852.31;;;15.91;20.09
13478;BME280;12598;62.382;17.344;2023-02-12T02:55:25;101849.75;;;15.89;20.01
13478;BME280;12598;62.382;17.344;2023-02-12T02:56:31;101836.00;;;15.83;20.26
13478;BME280;12598;62.382;17.344;2023-02-12T02:57:53;101848.69;;;15.92;20.39
13478;BME280;12598;62.382;17.344;2023-02-12T02:59:04;101842.41;;;15.93;19.92
13478;BME280;12598;62.382;17.344;2023-02-12T03:00:20;101848.47;;;15.95;20.17
13478;BME280;12598;62.382;17.344;2023-02-12T03:01:30;101852.09;;;15.94;20.09
13478;BME280;12598;62.382;17.344;2023-02-12T03:02:37;101848.69;;;15.92;20.27
13478;BME280;12598;62.382;17.344;2023-02-12T03:03:55;101834.09;;;15.85;20.26
13478;BME280;12598;62.382;17.344;2023-02-12T03:05:05;101852.09;;;15.94;20.41
13478;BME280;12598;62.382;17.344;2023-02-12T03:06:14;101848.69;;;15.92;20.49
13478;BME280;12598;62.382;17.344;2023-02-12T03:07:24;101841.66;;;15.91;19.96
13478;BME280;12598;62.382;17.344;2023-02-12T03:08:36;101828.53;;;15.88;20.31
13478;BME280;12598;62.382;17.344;2023-02-12T03:09:51;101846.88;;;15.92;20.32
13478;BME280;12598;62.382;17.344;2023-02-12T03:10:59;101833.88;;;15.88;20.36
13478;BME280;12598;62.382;17.344;2023-02-12T03:12:10;101832.25;;;15.85;20.03
13478;BME280;12598;62.382;17.344;2023-02-12T03:13:22;101839.00;;;15.91;20.41
13478;BME280;12598;62.382;17.344;2023-02-12T03:15:13;101834.63;;;15.90;20.45
13478;BME280;12598;62.382;17.344;2023-02-12T03:16:02;101815.28;;;15.86;20.39
13478;BME280;12598;62.382;17.344;2023-02-12T03:17:09;101824.69;;;15.92;20.40
13478;BME280;12598;62.382;17.344;2023-02-12T03:18:19;101826.63;;;15.90;20.67
13478;BME280;12598;62.382;17.344;2023-02-12T03:19:26;101824.91;;;15.89;20.19
13478;BME280;12598;62.382;17.344;2023-02-12T03:20:32;101820.53;;;15.88;20.51
13478;BME280;12598;62.382;17.344;2023-02-12T03:21:42;101819.56;;;15.89;20.34
13478;BME280;12598;62.382;17.344;2023-02-12T03:22:52;101818.69;;;15.88;20.24
13478;BME280;12598;62.382;17.344;2023-02-12T03:24:02;101823.19;;;15.88;20.31
13478;BME280;12598;62.382;17.344;2023-02-12T03:25:11;101823.19;;;15.88;20.27
13478;BME280;12598;62.382;17.344;2023-02-12T03:26:20;101810.91;;;15.85;20.15
13478;BME280;12598;62.382;17.344;2023-02-12T03:27:31;101823.19;;;15.88;20.40
13478;BME280;12598;62.382;17.344;2023-02-12T03:28:35;101818.81;;;15.87;20.07
13478;BME280;12598;62.382;17.344;2023-02-12T03:29:38;101819.03;;;15.84;20.30
13478;BME280;12598;62.382;17.344;2023-02-12T03:30:52;101823.41;;;15.85;20.39
13478;BME280;12598;62.382;17.344;2023-02-12T03:33:21;101797.94;;;15.81;20.25
13478;BME280;12598;62.382;17.344;2023-02-12T03:34:49;101802.69;;;15.88;20.71
13478;BME280;12598;62.382;17.344;2023-02-12T03:38:00;101786.38;;;15.93;20.32
13478;BME280;12598;62.382;17.344;2023-02-12T03:39:14;101789.50;;;15.87;20.19
13478;BME280;12598;62.382;17.344;2023-02-12T03:40:39;101792.47;;;15.95;20.23
13478;BME280;12598;62.382;17.344;2023-02-12T03:41:47;101798.84;;;15.92;20.14
13478;BME280;12598;62.382;17.344;2023-02-12T03:43:29;101801.44;;;15.94;20.08
13478;BME280;12598;62.382;17.344;2023-02-12T03:45:34;101797.69;;;15.96;20.36
13478;BME280;12598;62.382;17.344;2023-02-12T03:46:21;101794.16;;;15.96;20.59
13478;BME280;12598;62.382;17.344;2023-02-12T03:47:37;101796.31;;;15.91;20.66
13478;BME280;12598;62.382;17.344;2023-02-12T03:48:50;101803.56;;;15.89;20.41
13478;BME280;12598;62.382;17.344;2023-02-12T03:50:17;101788.00;;;15.83;20.47
13478;BME280;12598;62.382;17.344;2023-02-12T03:51:22;101800.78;;;15.90;20.50
13478;BME280;12598;62.382;17.344;2023-02-12T03:52:28;101792.25;;;15.85;20.55
13478;BME280;12598;62.382;17.344;2023-02-12T03:53:30;101782.69;;;15.83;20.40
13478;BME280;12598;62.382;17.344;2023-02-12T03:54:33;101780.09;;;15.81;20.55
13478;BME280;12598;62.382;17.344;2023-02-12T03:55:38;101778.00;;;15.74;20.56
13478;BME280;12598;62.382;17.344;2023-02-12T03:56:46;101779.47;;;15.78;20.50
13478;BME280;12598;62.382;17.344;2023-02-12T03:57:59;101777.56;;;15.80;20.63
13478;BME280;12598;62.382;17.344;2023-02-12T03:59:03;101779.34;;;15.79;20.60
13478;BME280;12598;62.382;17.344;2023-02-12T04:00:14;101772.31;;;15.78;20.49
13478;BME280;12598;62.382;17.344;2023-02-12T04:01:20;101770.31;;;15.82;20.81
13478;BME280;12598;62.382;17.344;2023-02-12T04:02:23;101773.06;;;15.80;20.68
13478;BME280;12598;62.382;17.344;2023-02-12T04:03:26;101767.34;;;15.74;20.54
13478;BME280;12598;62.382;17.344;2023-02-12T04:04:28;101774.16;;;15.78;20.67
13478;BME280;12598;62.382;17.344;2023-02-12T04:05:31;101775.00;;;15.78;20.53
13478;BME280;12598;62.382;17.344;2023-02-12T04:06:33;101774.16;;;15.78;20.70
13478;BME280;12598;62.382;17.344;2023-02-12T04:07:35;101772.44;;;15.77;20.74
13478;BME280;12598;62.382;17.344;2023-02-12T04:08:38;101765.41;;;15.76;20.87
13478;BME280;12598;62.382;17.344;2023-02-12T04:09:40;101759.34;;;15.74;20.99
13478;BME280;12598;62.382;17.344;2023-02-12T04:13:18;101764.00;;;15.83;20.41
13478;BME280;12598;62.382;17.344;2023-02-12T04:14:50;101759.63;;;15.82;20.87
13478;BME280;12598;62.382;17.344;2023-02-12T04:19:47;101764.00;;;15.83;20.70
13478;BME280;12598;62.382;17.344;2023-02-12T04:21:19;101754.81;;;15.87;20.67
13478;BME280;12598;62.382;17.344;2023-02-12T04:23:53;101753.13;;;15.86;20.66
13478;BME280;12598;62.382;17.344;2023-02-12T04:26:10;101747.03;;;15.84;20.56
13478;BME280;12598;62.382;17.344;2023-02-12T04:30:22;101751.06;;;15.89;21.01
13478;BME280;12598;62.382;17.344;2023-02-12T04:31:35;101743.19;;;15.88;21.09
13478;BME280;12598;62.382;17.344;2023-02-12T04:32:52;101748.53;;;15.88;20.71
13478;BME280;12598;62.382;17.344;2023-02-12T04:34:07;101750.44;;;15.86;21.11
13478;BME280;12598;62.382;17.344;2023-02-12T04:36:25;101717.50;;;15.74;20.90
13478;BME280;12598;62.382;17.344;2023-02-12T04:37:35;101730.41;;;15.80;21.26
13478;BME280;12598;62.382;17.344;2023-02-12T04:38:54;101732.00;;;15.83;21.27
13478;BME280;12598;62.382;17.344;2023-02-12T04:39:57;101732.00;;;15.83;20.86
13478;BME280;12598;62.382;17.344;2023-02-12T04:41:03;101728.69;;;15.79;21.13
13478;BME280;12598;62.382;17.344;2023-02-12T04:42:06;101730.63;;;15.77;21.14
13478;BME280;12598;62.382;17.344;2023-02-12T04:43:08;101729.78;;;15.77;20.97
13478;BME280;12598;62.382;17.344;2023-02-12T04:44:21;101717.50;;;15.74;21.22
13478;BME280;12598;62.382;17.344;2023-02-12T04:45:32;101714.41;;;15.80;20.90
13478;BME280;12598;62.382;17.344;2023-02-12T04:46:35;101724.97;;;15.82;21.43
13478;BME280;12598;62.382;17.344;2023-02-12T04:47:37;101721.56;;;15.80;21.13
13478;BME280;12598;62.382;17.344;2023-02-12T04:48:53;101708.66;;;15.74;21.44
13478;BME280;12598;62.382;17.344;2023-02-12T04:49:56;101720.59;;;15.81;20.91
13478;BME280;12598;62.382;17.344;2023-02-12T04:50:58;101720.69;;;15.79;21.22
13478;BME280;12598;62.382;17.344;2023-02-12T04:51:59;101714.94;;;15.73;21.14
13478;BME280;12598;62.382;17.344;2023-02-12T04:53:01;101725.19;;;15.79;21.00
13478;BME280;12598;62.382;17.344;2023-02-12T04:54:03;101727.13;;;15.77;21.07
13478;BME280;12598;62.382;17.344;2023-02-12T04:55:05;101724.31;;;15.78;21.63
13478;BME280;12598;62.382;17.344;2023-02-12T04:56:10;101679.16;;;15.52;21.25
13478;BME280;12598;62.382;17.344;2023-02-12T04:57:12;101711.84;;;15.79;21.40
13478;BME280;12598;62.382;17.344;2023-02-12T04:58:14;101708.31;;;15.78;21.77
13478;BME280;12598;62.382;17.344;2023-02-12T04:59:16;101699.50;;;15.78;21.87
13478;BME280;12598;62.382;17.344;2023-02-12T05:00:18;101700.66;;;15.74;21.65
13478;BME280;12598;62.382;17.344;2023-02-12T05:01:20;101707.47;;;15.78;21.48
13478;BME280;12598;62.382;17.344;2023-02-12T05:02:22;101714.53;;;15.79;21.56
13478;BME280;12598;62.382;17.344;2023-02-12T05:03:23;101695.66;;;15.69;21.38
13478;BME280;12598;62.382;17.344;2023-02-12T05:04:25;101708.22;;;15.80;21.79
13478;BME280;12598;62.382;17.344;2023-02-12T05:05:27;101708.44;;;15.77;21.57
13478;BME280;12598;62.382;17.344;2023-02-12T05:06:29;101708.22;;;15.80;21.33
13478;BME280;12598;62.382;17.344;2023-02-12T05:07:32;101713.44;;;15.81;21.78
13478;BME280;12598;62.382;17.344;2023-02-12T05:08:34;101699.91;;;15.72;21.42
13478;BME280;12598;62.382;17.344;2023-02-12T05:09:36;101706.53;;;15.79;21.66
13478;BME280;12598;62.382;17.344;2023-02-12T05:10:38;101707.25;;;15.81;21.89
13478;BME280;12598;62.382;17.344;2023-02-12T05:11:40;101695.13;;;15.77;21.67
13478;BME280;12598;62.382;17.344;2023-02-12T05:12:41;101695.34;;;15.74;21.70
13478;BME280;12598;62.382;17.344;2023-02-12T05:13:47;101703.72;;;15.80;21.60
13478;BME280;12598;62.382;17.344;2023-02-12T05:14:50;101694.16;;;15.78;22.05
13478;BME280;12598;62.382;17.344;2023-02-12T05:15:51;101704.59;;;15.81;21.67
13478;BME280;12598;62.382;17.344;2023-02-12T05:16:54;101690.75;;;15.76;21.56
13478;BME280;12598;62.382;17.344;2023-02-12T05:17:56;101689.03;;;15.75;21.73
13478;BME280;12598;62.382;17.344;2023-02-12T05:18:58;101692.44;;;15.77;21.62
13478;BME280;12598;62.382;17.344;2023-02-12T05:19:59;101706.16;;;15.83;21.90
13478;BME280;12598;62.382;17.344;2023-02-12T05:21:03;101703.50;;;15.83;21.84
13478;BME280;12598;62.382;17.344;2023-02-12T05:22:05;101699.03;;;15.84;21.68
13478;BME280;12598;62.382;17.344;2023-02-12T05:23:07;101699.78;;;15.86;21.26
13478;BME280;12598;62.382;17.344;2023-02-12T05:24:09;101682.41;;;15.80;21.62
13478;BME280;12598;62.382;17.344;2023-02-12T05:25:11;101700.75;;;15.85;21.83
13478;BME280;12598;62.382;17.344;2023-02-12T05:26:16;101699.03;;;15.84;22.07
13478;BME280;12598;62.382;17.344;2023-02-12T05:27:18;101693.47;;;15.87;21.63
13478;BME280;12598;62.382;17.344;2023-02-12T05:28:20;101686.44;;;15.86;21.99
13478;BME280;12598;62.382;17.344;2023-02-12T05:29:22;101688.16;;;15.87;21.76
13478;BME280;12598;62.382;17.344;2023-02-12T05:30:24;101692.75;;;15.85;22.24
13478;BME280;12598;62.382;17.344;2023-02-12T05:31:26;101693.47;;;15.87;21.86
13478;BME280;12598;62.382;17.344;2023-02-12T05:32:28;101697.94;;;15.86;22.00
13478;BME280;12598;62.382;17.344;2023-02-12T05:33:31;101692.63;;;15.86;21.73
13478;BME280;12598;62.382;17.344;2023-02-12T05:34:33;101688.59;;;15.81;21.83
13478;BME280;12598;62.382;17.344;2023-02-12T05:35:35;101690.69;;;15.88;22.01
13478;BME280;12598;62.382;17.344;2023-02-12T05:36:37;101690.06;;;15.85;21.65
13478;BME280;12598;62.382;17.344;2023-02-12T05:37:39;101693.34;;;15.88;21.76
13478;BME280;12598;62.382;17.344;2023-02-12T05:38:42;101688.97;;;15.87;21.88
13478;BME280;12598;62.382;17.344;2023-02-12T05:39:43;101688.16;;;15.87;22.02
13478;BME280;12598;62.382;17.344;2023-02-12T05:40:45;101672.59;;;15.81;21.96
13478;BME280;12598;62.382;17.344;2023-02-12T05:41:47;101682.69;;;15.88;22.26
13478;BME280;12598;62.382;17.344;2023-02-12T05:42:49;101695.94;;;15.90;21.71
13478;BME280;12598;62.382;17.344;2023-02-12T05:43:51;101693.47;;;15.87;22.07
13478;BME280;12598;62.382;17.344;2023-02-12T05:44:53;101697.72;;;15.89;22.04
13478;BME280;12598;62.382;17.344;2023-02-12T05:45:58;101695.19;;;15.88;22.13
13478;BME280;12598;62.382;17.344;2023-02-12T05:47:00;101694.97;;;15.91;21.71
13478;BME280;12598;62.382;17.344;2023-02-12T05:48:02;101688.97;;;15.87;22.09
13478;BME280;12598;62.382;17.344;2023-02-12T05:49:04;101697.50;;;15.92;22.34
13478;BME280;12598;62.382;17.344;2023-02-12T05:50:06;101691.34;;;15.92;22.11
13478;BME280;12598;62.382;17.344;2023-02-12T05:51:14;101678.09;;;15.90;22.38
13478;BME280;12598;62.382;17.344;2023-02-12T05:52:16;101679.69;;;15.93;22.26
13478;BME280;12598;62.382;17.344;2023-02-12T05:53:17;101678.00;;;15.92;21.91
13478;BME280;12598;62.382;17.344;2023-02-12T05:54:19;101677.88;;;15.93;21.73
13478;BME280;12598;62.382;17.344;2023-02-12T05:55:21;101651.03;;;15.84;22.08
13478;BME280;12598;62.382;17.344;2023-02-12T05:56:26;101657.84;;;15.88;22.16
13478;BME280;12598;62.382;17.344;2023-02-12T05:57:28;101669.03;;;15.93;22.19
13478;BME280;12598;62.382;17.344;2023-02-12T05:58:30;101661.03;;;15.93;21.97
13478;BME280;12598;62.382;17.344;2023-02-12T05:59:31;101642.91;;;15.85;22.17
13478;BME280;12598;62.382;17.344;2023-02-12T06:00:34;101671.69;;;15.93;22.21
13478;BME280;12598;62.382;17.344;2023-02-12T06:01:38;101670.81;;;15.92;21.82
13478;BME280;12598;62.382;17.344;2023-02-12T06:02:40;101678.00;;;15.92;22.29
13478;BME280;12598;62.382;17.344;2023-02-12T06:03:42;101639.53;;;15.71;22.26
13478;BME280;12598;62.382;17.344;2023-02-12T06:04:44;101670.72;;;15.94;22.04
13478;BME280;12598;62.382;17.344;2023-02-12T06:05:50;101669.78;;;15.95;22.25
13478;BME280;12598;62.382;17.344;2023-02-12T06:06:53;101656.75;;;15.90;22.00
13478;BME280;12598;62.382;17.344;2023-02-12T06:07:56;101655.47;;;15.96;22.08
13478;BME280;12598;62.382;17.344;2023-02-12T06:08:58;101660.91;;;15.94;21.90
13478;BME280;12598;62.382;17.344;2023-02-12T06:10:00;101656.88;;;15.89;22.13
13478;BME280;12598;62.382;17.344;2023-02-12T06:11:04;101660.06;;;15.94;21.83